createdAt,value
2018-03-26T00:00:16.770Z,86.80
2018-03-26T00:02:44.318Z,86.80
2018-03-26T00:05:11.826Z,87.30
2018-03-26T00:07:39.342Z,87.30
2018-03-26T00:10:06.887Z,87.40
2018-03-26T00:12:34.404Z,87.30
2018-03-26T00:15:02.798Z,87.30
2018-03-26T00:17:31.066Z,87.80
2018-03-26T00:19:59.380Z,88.60
2018-03-26T00:22:26.917Z,87.90
2018-03-26T00:24:54.453Z,87.90
2018-03-26T00:27:22.254Z,87.90
2018-03-26T00:29:49.746Z,87.10
2018-03-26T00:32:17.231Z,88.00
2018-03-26T00:34:45.687Z,88.20
2018-03-26T00:37:13.173Z,88.20
2018-03-26T00:39:40.695Z,88.60
2018-03-26T00:42:08.186Z,88.10
2018-03-26T00:44:36.496Z,87.90
2018-03-26T00:47:04.018Z,87.90
2018-03-26T00:49:32.433Z,88.20
2018-03-26T00:51:59.952Z,88.30
2018-03-26T00:54:27.519Z,88.50
2018-03-26T00:56:57.110Z,88.60
2018-03-26T00:59:24.576Z,88.60
2018-03-26T01:01:52.862Z,88.70
2018-03-26T01:04:20.391Z,88.70
2018-03-26T01:06:47.906Z,88.70
2018-03-26T01:09:15.432Z,88.70
2018-03-26T01:11:43.733Z,89.50
2018-03-26T01:14:11.221Z,89.50
2018-03-26T01:16:38.729Z,90.20
2018-03-26T01:19:06.247Z,90.70
2018-03-26T01:21:33.773Z,90.80
2018-03-26T01:24:01.292Z,91.10
2018-03-26T01:26:29.582Z,91.20
2018-03-26T01:28:57.109Z,91.20
2018-03-26T01:31:25.430Z,91.70
2018-03-26T01:33:52.939Z,91.50
2018-03-26T01:36:20.466Z,91.60
2018-03-26T01:38:48.005Z,91.80
2018-03-26T01:41:15.550Z,92.10
2018-03-26T01:43:43.064Z,92.30
2018-03-26T01:46:11.388Z,92.20
2018-03-26T01:48:38.980Z,92.20
2018-03-26T01:51:06.504Z,92.30
2018-03-26T01:53:34.069Z,92.50
2018-03-26T01:56:01.572Z,92.60
2018-03-26T01:58:29.084Z,92.90
2018-03-26T02:00:56.643Z,93.20
2018-03-26T02:03:24.158Z,93.20
2018-03-26T02:05:52.487Z,93.60
2018-03-26T02:08:20.022Z,93.30
2018-03-26T02:10:47.531Z,93.50
2018-03-26T02:13:15.119Z,93.60
2018-03-26T02:15:43.603Z,94.00
2018-03-26T02:18:11.946Z,94.10
2018-03-26T02:20:39.510Z,94.10
2018-03-26T02:23:07.095Z,94.20
2018-03-26T02:25:35.417Z,95.20
2018-03-26T02:28:02.938Z,95.20
2018-03-26T02:30:30.486Z,95.40
2018-03-26T02:32:58.931Z,96.10
2018-03-26T02:35:26.467Z,96.00
2018-03-26T02:37:53.993Z,96.20
2018-03-26T02:40:22.115Z,96.40
2018-03-26T02:42:49.630Z,96.70
2018-03-26T02:45:17.162Z,96.80
2018-03-26T02:47:44.702Z,96.90
2018-03-26T02:50:12.277Z,97.00
2018-03-26T02:52:39.772Z,97.50
2018-03-26T02:55:07.657Z,97.40
2018-03-26T02:57:35.234Z,97.70
2018-03-26T03:00:02.781Z,97.80
2018-03-26T03:02:30.326Z,98.00
2018-03-26T03:04:57.854Z,98.20
2018-03-26T03:07:25.544Z,98.30
2018-03-26T03:09:53.047Z,98.40
2018-03-26T03:12:21.335Z,98.60
2018-03-26T03:14:49.590Z,98.60
2018-03-26T03:17:17.104Z,98.60
2018-03-26T03:19:44.758Z,98.70
2018-03-26T03:22:12.297Z,98.90
2018-03-26T03:24:39.792Z,99.00
2018-03-26T03:27:07.329Z,98.80
2018-03-26T03:29:34.822Z,99.00
2018-03-26T03:32:02.897Z,99.10
2018-03-26T03:34:30.383Z,99.20
2018-03-26T03:36:58.827Z,99.20
2018-03-26T03:39:26.554Z,99.30
2018-03-26T03:41:54.070Z,99.20
2018-03-26T03:44:22.340Z,99.10
2018-03-26T03:46:49.879Z,99.00
2018-03-26T03:49:17.399Z,99.10
2018-03-26T03:51:44.987Z,99.20
2018-03-26T03:54:12.514Z,99.10
2018-03-26T03:56:40.046Z,99.20
2018-03-26T03:59:08.326Z,99.00
2018-03-26T04:01:35.876Z,99.00
2018-03-26T04:04:04.163Z,99.20
2018-03-26T04:06:32.462Z,99.20
2018-03-26T04:08:59.956Z,99.20
2018-03-26T04:11:27.473Z,99.30
2018-03-26T04:13:54.978Z,99.20
2018-03-26T04:16:22.587Z,99.20
2018-03-26T04:18:50.104Z,99.20
2018-03-26T04:21:17.663Z,99.10
2018-03-26T04:23:45.199Z,99.10
2018-03-26T04:26:12.703Z,99.10
2018-03-26T04:28:40.248Z,99.00
2018-03-26T04:31:08.588Z,98.80
2018-03-26T04:33:36.921Z,98.90
2018-03-26T04:36:04.453Z,98.90
2018-03-26T04:38:32.743Z,98.70
2018-03-26T04:41:00.270Z,98.70
2018-03-26T04:43:27.812Z,98.90
2018-03-26T04:45:55.331Z,98.80
2018-03-26T04:48:22.887Z,99.00
2018-03-26T04:50:51.147Z,99.00
2018-03-26T04:53:19.420Z,99.00
2018-03-26T04:55:47.839Z,99.00
2018-03-26T04:58:15.342Z,99.00
2018-03-26T05:00:42.906Z,98.90
2018-03-26T05:03:10.426Z,98.80
2018-03-26T05:05:37.959Z,98.90
2018-03-26T05:08:05.514Z,99.00
2018-03-26T05:10:33.042Z,98.80
2018-03-26T05:13:01.349Z,98.90
2018-03-26T05:15:28.871Z,98.90
2018-03-26T05:17:57.147Z,99.00
2018-03-26T05:20:25.425Z,99.10
2018-03-26T05:22:53.719Z,99.10
2018-03-26T05:25:22.089Z,99.10
2018-03-26T05:27:49.627Z,99.10
2018-03-26T05:30:17.148Z,99.10
2018-03-26T05:32:44.734Z,99.30
2018-03-26T05:35:12.246Z,99.30
2018-03-26T05:37:39.841Z,99.20
2018-03-26T05:40:08.161Z,99.40
2018-03-26T05:42:35.738Z,99.40
2018-03-26T05:45:03.270Z,99.40
2018-03-26T05:47:31.550Z,99.60
2018-03-26T05:49:59.902Z,99.50
2018-03-26T05:52:28.264Z,99.60
2018-03-26T05:54:55.779Z,99.60
2018-03-26T05:57:23.297Z,99.70
2018-03-26T05:59:51.575Z,99.90
2018-03-26T06:02:19.882Z,99.90
2018-03-26T06:04:47.437Z,99.90
2018-03-26T06:07:14.992Z,99.90
2018-03-26T06:09:42.873Z,99.90
2018-03-26T06:12:10.386Z,99.90
2018-03-26T06:14:38.704Z,99.90
2018-03-26T06:17:17.859Z,99.90
2018-03-26T06:19:45.403Z,99.90
2018-03-26T06:22:12.990Z,99.90
2018-03-26T06:24:40.486Z,99.90
2018-03-26T06:27:08.005Z,99.90
2018-03-26T06:29:35.528Z,99.90
2018-03-26T06:32:03.076Z,99.90
2018-03-26T06:34:30.713Z,99.90
2018-03-26T06:37:14.723Z,99.90
2018-03-26T06:39:42.243Z,99.90
2018-03-26T06:42:09.756Z,99.90
2018-03-26T06:44:37.279Z,99.90
2018-03-26T06:47:05.209Z,99.90
2018-03-26T06:49:32.662Z,99.90
2018-03-26T06:52:00.200Z,99.50
2018-03-26T06:54:29.232Z,99.80
2018-03-26T06:56:56.779Z,99.80
2018-03-26T06:59:24.278Z,99.90
2018-03-26T07:01:51.811Z,99.80
2018-03-26T07:04:19.319Z,99.90
2018-03-26T07:06:47.628Z,99.70
2018-03-26T07:09:15.911Z,99.60
2018-03-26T07:11:43.431Z,99.60
2018-03-26T07:14:11.767Z,99.20
2018-03-26T07:16:39.293Z,99.20
2018-03-26T07:19:06.802Z,98.70
2018-03-26T07:21:34.339Z,98.10
2018-03-26T07:24:01.843Z,97.90
2018-03-26T07:26:30.151Z,97.40
2018-03-26T07:28:57.680Z,97.40
2018-03-26T07:31:25.173Z,96.40
2018-03-26T07:33:52.771Z,95.90
2018-03-26T07:36:20.304Z,95.30
2018-03-26T07:38:47.906Z,94.70
2018-03-26T07:41:15.449Z,94.70
2018-03-26T07:43:43.034Z,95.00
2018-03-26T07:46:11.335Z,93.90
2018-03-26T07:48:38.892Z,93.90
2018-03-26T07:51:07.173Z,94.30
2018-03-26T07:53:34.806Z,94.10
2018-03-26T07:56:03.134Z,95.20
2018-03-26T07:58:30.672Z,95.20
2018-03-26T08:00:58.231Z,95.70
2018-03-26T08:03:25.787Z,95.70
2018-03-26T08:05:53.308Z,95.90
2018-03-26T08:08:21.654Z,95.90
2018-03-26T08:10:49.168Z,95.90
2018-03-26T08:13:16.793Z,96.00
2018-03-26T08:15:55.028Z,97.10
2018-03-26T08:18:22.542Z,97.10
2018-03-26T08:20:50.100Z,97.30
2018-03-26T08:23:17.674Z,96.90
2018-03-26T08:25:46.025Z,97.10
2018-03-26T08:28:13.834Z,97.10
2018-03-26T08:30:42.126Z,98.10
2018-03-26T08:33:09.606Z,98.10
2018-03-26T08:35:37.149Z,98.20
2018-03-26T08:38:04.678Z,97.80
2018-03-26T08:40:33.038Z,97.00
2018-03-26T08:43:00.625Z,96.90
2018-03-26T08:45:28.120Z,96.60
2018-03-26T08:47:55.644Z,96.80
2018-03-26T08:50:23.166Z,96.90
2018-03-26T08:52:50.690Z,97.00
2018-03-26T08:55:18.255Z,96.80
2018-03-26T08:57:45.778Z,96.20
2018-03-26T09:00:13.315Z,94.80
2018-03-26T09:02:41.588Z,90.30
2018-03-26T09:05:09.925Z,87.70
2018-03-26T09:07:37.483Z,87.70
2018-03-26T09:10:04.992Z,87.00
2018-03-26T09:12:32.593Z,85.50
2018-03-26T09:15:00.132Z,82.60
2018-03-26T09:17:27.699Z,78.50
2018-03-26T09:19:55.232Z,78.10
2018-03-26T09:22:24.476Z,87.60
2018-03-26T09:24:52.032Z,87.60
2018-03-26T09:27:19.521Z,86.40
2018-03-26T09:29:47.835Z,87.90
2018-03-26T09:32:15.350Z,87.80
2018-03-26T09:34:43.629Z,83.20
2018-03-26T09:37:11.163Z,83.10
2018-03-26T09:39:38.681Z,83.40
2018-03-26T09:42:06.307Z,83.00
2018-03-26T09:44:34.601Z,84.80
2018-03-26T09:47:02.128Z,84.70
2018-03-26T09:49:29.657Z,85.10
2018-03-26T09:51:57.157Z,84.30
2018-03-26T09:54:25.455Z,81.50
2018-03-26T09:56:53.075Z,81.30
2018-03-26T09:59:20.564Z,79.80
2018-03-26T10:01:53.912Z,78.70
2018-03-26T10:04:21.406Z,78.90
2018-03-26T10:06:49.710Z,79.20
2018-03-26T10:09:17.233Z,79.00
2018-03-26T10:11:45.517Z,76.40
2018-03-26T10:14:13.809Z,75.90
2018-03-26T10:16:41.310Z,75.90
2018-03-26T10:19:09.135Z,76.10
2018-03-26T10:21:36.657Z,74.90
2018-03-26T10:24:04.959Z,73.70
2018-03-26T10:26:33.324Z,74.50
2018-03-26T10:29:01.596Z,75.00
2018-03-26T10:31:29.892Z,75.80
2018-03-26T10:33:57.407Z,75.80
2018-03-26T10:36:25.108Z,67.80
2018-03-26T10:38:52.751Z,70.60
2018-03-26T10:41:21.015Z,59.80
2018-03-26T10:43:49.332Z,51.00
2018-03-26T10:46:16.858Z,50.90
2018-03-26T10:48:45.138Z,50.90
2018-03-26T10:51:12.699Z,50.90
2018-03-26T10:53:40.989Z,51.90
2018-03-26T10:56:08.535Z,51.90
2018-03-26T10:58:36.150Z,53.30
2018-03-26T11:01:03.782Z,51.20
2018-03-26T11:03:31.659Z,50.70
2018-03-26T11:05:59.363Z,53.40
2018-03-26T11:08:27.265Z,54.20
2018-03-26T11:10:54.870Z,52.90
2018-03-26T11:13:22.398Z,56.60
2018-03-26T11:15:49.973Z,57.60
2018-03-26T11:18:17.479Z,56.70
2018-03-26T11:20:45.014Z,57.60
2018-03-26T11:23:13.138Z,58.20
2018-03-26T11:25:40.685Z,59.40
2018-03-26T11:28:08.237Z,59.60
2018-03-26T11:30:35.826Z,60.50
2018-03-26T11:33:03.446Z,59.10
2018-03-26T11:35:31.726Z,61.00
2018-03-26T11:37:59.264Z,61.00
2018-03-26T11:40:26.858Z,64.20
2018-03-26T11:42:54.399Z,67.00
2018-03-26T11:45:21.969Z,59.10
2018-03-26T11:47:49.507Z,59.40
2018-03-26T11:50:17.891Z,61.70
2018-03-26T11:52:45.475Z,61.60
2018-03-26T11:55:12.997Z,60.40
2018-03-26T11:57:40.517Z,60.50
2018-03-26T12:00:08.065Z,61.90
2018-03-26T12:02:35.592Z,63.30
2018-03-26T12:05:03.221Z,63.10
2018-03-26T12:07:31.565Z,61.70
2018-03-26T12:09:59.372Z,61.50
2018-03-26T12:12:27.682Z,58.60
2018-03-26T12:14:55.244Z,58.60
2018-03-26T12:17:23.027Z,59.00
2018-03-26T12:20:02.331Z,58.10
2018-03-26T12:22:29.948Z,58.00
2018-03-26T12:25:15.813Z,55.80
2018-03-26T12:27:55.408Z,55.80
2018-03-26T12:30:25.324Z,57.40
2018-03-26T12:32:53.103Z,57.30
2018-03-26T12:35:32.502Z,58.50
2018-03-26T12:38:00.084Z,59.10
2018-03-26T12:40:40.583Z,59.80
2018-03-26T12:43:08.129Z,60.30
2018-03-26T12:45:47.434Z,61.40
2018-03-26T12:48:14.958Z,59.80
2018-03-26T12:51:05.127Z,59.40
2018-03-26T12:53:32.679Z,60.20
2018-03-26T12:56:00.254Z,59.60
2018-03-26T12:58:39.784Z,60.20
2018-03-26T13:01:19.025Z,59.50
2018-03-26T13:03:47.345Z,61.60
2018-03-26T13:06:16.156Z,60.90
2018-03-26T13:08:44.430Z,60.30
2018-03-26T13:11:12.099Z,59.50
2018-03-26T13:13:40.385Z,59.00
2018-03-26T13:16:07.999Z,58.80
2018-03-26T13:18:35.590Z,56.00
2018-03-26T13:21:03.134Z,55.10
2018-03-26T13:23:30.649Z,55.30
2018-03-26T13:25:58.996Z,54.80
2018-03-26T13:28:26.509Z,54.30
2018-03-26T13:30:54.062Z,52.50
2018-03-26T13:33:22.340Z,51.00
2018-03-26T13:35:49.859Z,51.00
2018-03-26T13:38:17.488Z,50.60
2018-03-26T13:40:44.995Z,51.20
2018-03-26T13:43:13.962Z,52.30
2018-03-26T13:45:41.558Z,52.30
2018-03-26T13:48:09.863Z,52.50
2018-03-26T13:50:37.725Z,52.40
2018-03-26T13:53:05.255Z,51.50
2018-03-26T13:55:33.538Z,50.30
2018-03-26T13:58:01.063Z,50.30
2018-03-26T14:00:28.650Z,50.70
2018-03-26T14:02:56.341Z,51.00
2018-03-26T14:05:23.849Z,50.70
2018-03-26T14:07:52.246Z,51.10
2018-03-26T14:10:31.700Z,51.70
2018-03-26T14:13:11.227Z,52.20
2018-03-26T14:15:50.803Z,50.00
2018-03-26T14:18:18.354Z,47.40
2018-03-26T14:20:45.879Z,46.10
2018-03-26T14:23:13.410Z,45.00
2018-03-26T14:25:40.907Z,46.10
2018-03-26T14:28:08.420Z,46.80
2018-03-26T14:30:35.956Z,44.10
2018-03-26T14:33:03.468Z,41.10
2018-03-26T14:35:46.617Z,44.40
2018-03-26T14:38:14.139Z,44.40
2018-03-26T14:40:42.409Z,43.50
2018-03-26T14:43:09.990Z,43.50
2018-03-26T14:45:38.271Z,42.10
2018-03-26T14:48:05.847Z,42.20
2018-03-26T14:50:33.365Z,43.30
2018-03-26T14:53:01.639Z,45.60
2018-03-26T14:55:29.966Z,45.50
2018-03-26T14:57:57.442Z,45.50
2018-03-26T15:00:24.967Z,46.20
2018-03-26T15:02:52.532Z,47.40
2018-03-26T15:05:20.817Z,49.50
2018-03-26T15:07:48.461Z,49.50
2018-03-26T15:10:15.949Z,49.70
2018-03-26T15:12:43.460Z,50.50
2018-03-26T15:15:10.951Z,50.90
2018-03-26T15:17:38.476Z,51.60
2018-03-26T15:20:06.010Z,51.90
2018-03-26T15:22:34.322Z,52.80
2018-03-26T15:25:01.842Z,52.80
2018-03-26T15:27:30.202Z,54.00
2018-03-26T15:29:58.323Z,54.10
2018-03-26T15:32:25.891Z,53.70
2018-03-26T15:34:53.422Z,53.20
2018-03-26T15:37:20.975Z,52.10
2018-03-26T15:39:48.495Z,53.30
2018-03-26T15:42:16.050Z,52.70
2018-03-26T15:44:43.590Z,52.80
2018-03-26T15:47:11.208Z,53.30
2018-03-26T15:49:40.528Z,52.60
2018-03-26T15:52:08.039Z,52.20
2018-03-26T15:54:35.562Z,52.00
2018-03-26T15:57:03.157Z,52.10
2018-03-26T15:59:31.574Z,52.60
2018-03-26T16:01:59.859Z,53.10
2018-03-26T16:04:27.381Z,52.60
2018-03-26T16:06:55.759Z,51.10
2018-03-26T16:09:23.339Z,50.70
2018-03-26T16:11:50.855Z,51.30
2018-03-26T16:14:19.154Z,50.50
2018-03-26T16:16:47.536Z,51.00
2018-03-26T16:19:15.944Z,50.40
2018-03-26T16:21:43.559Z,50.30
2018-03-26T16:24:11.151Z,50.90
2018-03-26T16:26:38.673Z,50.60
2018-03-26T16:29:06.329Z,50.50
2018-03-26T16:31:33.983Z,50.00
2018-03-26T16:34:01.536Z,50.30
2018-03-26T16:36:29.074Z,50.20
2018-03-26T16:38:56.622Z,50.00
2018-03-26T16:41:35.858Z,49.80
2018-03-26T16:44:03.406Z,49.80
2018-03-26T16:46:30.977Z,50.00
2018-03-26T16:48:58.508Z,49.30
2018-03-26T16:51:26.284Z,49.90
2018-03-26T16:53:53.784Z,49.30
2018-03-26T16:56:34.258Z,50.10
2018-03-26T16:59:03.242Z,50.30
2018-03-26T17:01:30.775Z,50.20
2018-03-26T17:03:58.350Z,50.40
2018-03-26T17:06:25.903Z,51.30
2018-03-26T17:08:53.484Z,50.90
2018-03-26T17:11:21.018Z,50.70
2018-03-26T17:13:48.958Z,51.80
2018-03-26T17:16:16.562Z,52.40
2018-03-26T17:18:44.058Z,50.60
2018-03-26T17:21:11.708Z,50.90
2018-03-26T17:23:40.011Z,50.00
2018-03-26T17:26:07.519Z,50.00
2018-03-26T17:28:35.134Z,50.20
2018-03-26T17:31:02.701Z,50.10
2018-03-26T17:33:30.271Z,50.30
2018-03-26T17:35:57.782Z,49.80
2018-03-26T17:38:25.322Z,50.20
2018-03-26T17:40:53.727Z,50.40
2018-03-26T17:43:21.260Z,50.40
2018-03-26T17:45:48.848Z,50.60
2018-03-26T17:48:16.404Z,50.50
2018-03-26T17:50:44.068Z,50.70
2018-03-26T17:53:11.600Z,51.10
2018-03-26T17:55:39.892Z,51.70
2018-03-26T17:58:07.473Z,51.70
2018-03-26T18:00:35.019Z,52.10
2018-03-26T18:03:02.545Z,52.50
2018-03-26T18:05:30.859Z,53.10
2018-03-26T18:07:58.378Z,53.10
2018-03-26T18:10:26.758Z,53.10
2018-03-26T18:12:55.023Z,52.60
2018-03-26T18:15:23.332Z,52.70
2018-03-26T18:17:50.845Z,52.60
2018-03-26T18:20:18.339Z,53.10
2018-03-26T18:22:45.892Z,53.40
2018-03-26T18:25:14.256Z,54.10
2018-03-26T18:27:42.552Z,54.80
2018-03-26T18:30:10.105Z,54.70
2018-03-26T18:32:37.631Z,55.80
2018-03-26T18:35:05.178Z,56.10
2018-03-26T18:37:32.744Z,56.50
2018-03-26T18:40:00.264Z,57.60
2018-03-26T18:42:27.762Z,58.10
2018-03-26T18:44:55.312Z,58.70
2018-03-26T18:47:23.520Z,58.80
2018-03-26T18:49:51.794Z,59.90
2018-03-26T18:52:20.083Z,60.30
2018-03-26T18:54:47.588Z,60.30
2018-03-26T18:57:15.130Z,59.60
2018-03-26T18:59:42.742Z,60.10
2018-03-26T19:02:11.799Z,59.80
2018-03-26T19:04:39.364Z,59.70
2018-03-26T19:07:06.976Z,60.60
2018-03-26T19:09:34.495Z,61.20
2018-03-26T19:12:02.565Z,61.80
2018-03-26T19:14:30.855Z,64.50
2018-03-26T19:16:59.137Z,65.50
2018-03-26T19:19:27.491Z,65.80
2018-03-26T19:21:55.038Z,65.80
2018-03-26T19:24:23.446Z,66.40
2018-03-26T19:26:50.976Z,67.80
2018-03-26T19:29:18.630Z,68.90
2018-03-26T19:31:46.108Z,69.10
2018-03-26T19:34:14.387Z,69.90
2018-03-26T19:36:42.684Z,70.60
2018-03-26T19:39:10.194Z,70.60
2018-03-26T19:41:37.749Z,70.30
2018-03-26T19:44:06.164Z,70.70
2018-03-26T19:46:35.394Z,70.40
2018-03-26T19:49:02.946Z,70.30
2018-03-26T19:51:30.450Z,71.70
2018-03-26T19:53:57.953Z,71.60
2018-03-26T19:56:26.064Z,71.50
2018-03-26T19:58:53.723Z,71.00
2018-03-26T20:01:21.342Z,71.60
2018-03-26T20:03:48.916Z,71.00
2018-03-26T20:06:16.852Z,72.00
2018-03-26T20:08:44.423Z,72.30
2018-03-26T20:11:11.980Z,71.90
2018-03-26T20:13:41.019Z,72.80
2018-03-26T20:16:08.546Z,72.60
2018-03-26T20:18:36.390Z,73.10
2018-03-26T20:21:03.989Z,73.60
2018-03-26T20:23:31.526Z,74.10
2018-03-26T20:25:59.084Z,74.20
2018-03-26T20:28:27.134Z,74.40
2018-03-26T20:30:56.407Z,76.60
2018-03-26T20:33:23.947Z,76.60
2018-03-26T20:35:52.300Z,76.30
2018-03-26T20:38:20.306Z,76.60
2018-03-26T20:40:47.841Z,76.80
2018-03-26T20:43:15.627Z,78.50
2018-03-26T20:45:43.180Z,79.50
2018-03-26T20:48:10.789Z,79.60
2018-03-26T20:50:38.576Z,80.00
2018-03-26T20:53:06.123Z,81.30
2018-03-26T20:55:33.629Z,81.60
2018-03-26T20:58:01.150Z,81.30
2018-03-26T21:00:30.937Z,82.30
2018-03-26T21:02:58.580Z,82.40
2018-03-26T21:05:26.871Z,83.10
2018-03-26T21:07:54.423Z,83.10
2018-03-26T21:10:22.526Z,84.00
2018-03-26T21:12:50.150Z,85.20
2018-03-26T21:15:18.762Z,89.40
2018-03-26T21:17:46.258Z,89.40
2018-03-26T21:20:13.821Z,90.00
2018-03-26T21:22:41.338Z,91.20
2018-03-26T21:25:08.856Z,91.50
2018-03-26T21:27:37.227Z,92.30
2018-03-26T21:30:05.604Z,92.30
2018-03-26T21:32:33.135Z,93.00
2018-03-26T21:35:00.722Z,93.50
2018-03-26T21:37:29.050Z,94.10
2018-03-26T21:39:56.667Z,94.00
2018-03-26T21:42:24.980Z,94.00
2018-03-26T21:44:52.515Z,94.00
2018-03-26T21:47:20.057Z,94.10
2018-03-26T21:49:48.373Z,94.90
2018-03-26T21:52:15.984Z,94.80
2018-03-26T21:54:44.324Z,95.30
2018-03-26T21:57:11.847Z,95.20
2018-03-26T21:59:39.370Z,95.20
2018-03-26T22:02:07.671Z,96.00
2018-03-26T22:04:35.231Z,96.00
2018-03-26T22:07:02.782Z,96.10
2018-03-26T22:09:30.361Z,96.40
2018-03-26T22:11:57.867Z,96.30
2018-03-26T22:14:26.883Z,96.70
2018-03-26T22:16:55.221Z,97.00
2018-03-26T22:19:22.700Z,97.00
2018-03-26T22:21:50.236Z,97.40
2018-03-26T22:24:18.061Z,97.60
2018-03-26T22:26:45.610Z,97.90
2018-03-26T22:29:13.120Z,98.20
2018-03-26T22:31:40.682Z,98.20
2018-03-26T22:34:08.239Z,98.40
2018-03-26T22:36:35.847Z,98.50
2018-03-26T22:39:03.353Z,98.90
2018-03-26T22:41:30.848Z,98.80
2018-03-26T22:43:59.277Z,98.80
2018-03-26T22:46:26.855Z,98.80
2018-03-26T22:48:54.379Z,98.70
2018-03-26T22:51:21.889Z,98.60
2018-03-26T22:53:49.412Z,98.70
2018-03-26T22:56:16.967Z,98.80
2018-03-26T22:58:44.467Z,98.90
2018-03-26T23:01:12.025Z,98.80
2018-03-26T23:03:40.335Z,98.90
2018-03-26T23:06:07.950Z,98.90
2018-03-26T23:08:36.249Z,99.10
2018-03-26T23:11:03.790Z,99.10
2018-03-26T23:13:31.495Z,99.10
2018-03-26T23:15:58.978Z,98.90
2018-03-26T23:18:26.499Z,99.20
2018-03-26T23:20:54.048Z,99.10
2018-03-26T23:23:21.555Z,99.10
2018-03-26T23:25:49.386Z,99.30
2018-03-26T23:28:16.872Z,99.40
2018-03-26T23:30:44.389Z,99.40
2018-03-26T23:33:11.942Z,99.50
2018-03-26T23:35:39.526Z,99.40
2018-03-26T23:38:07.067Z,99.40
2018-03-26T23:40:35.494Z,99.30
2018-03-26T23:43:02.998Z,99.50
2018-03-26T23:45:30.529Z,99.50
2018-03-26T23:47:58.805Z,99.60
2018-03-26T23:50:27.129Z,99.90
2018-03-26T23:52:54.654Z,99.80
2018-03-26T23:55:22.164Z,99.90
2018-03-26T23:57:49.684Z,99.80
